sensor_id;sensor_type;location;lat;lon;timestamp;pressure;altitude;pressure_sealevel;temperature;humidity
33422;BME280;19763;55.798;37.782;2023-04-28T00:01:15;150778.56;;;13.89;68.78
33422;BME280;19763;55.798;37.782;2023-04-28T00:03:41;150783.72;;;13.91;68.57
33422;BME280;19763;55.798;37.782;2023-04-28T00:06:06;150803.00;;;13.99;69.16
33422;BME280;19763;55.798;37.782;2023-04-28T00:08:32;150813.28;;;14.03;69.84
33422;BME280;19763;55.798;37.782;2023-04-28T00:10:58;150805.59;;;14.00;69.58
33422;BME280;19763;55.798;37.782;2023-04-28T00:13:23;150794.03;;;13.95;69.62
33422;BME280;19763;55.798;37.782;2023-04-28T00:15:49;150799.16;;;13.97;69.18
33422;BME280;19763;55.798;37.782;2023-04-28T00:18:17;150781.16;;;13.90;68.14
33422;BME280;19763;55.798;37.782;2023-04-28T00:20:43;150777.28;;;13.89;69.81
33422;BME280;19763;55.798;37.782;2023-04-28T00:23:09;150774.72;;;13.88;68.71
33422;BME280;19763;55.798;37.782;2023-04-28T00:25:34;150785.00;;;13.92;69.77
33422;BME280;19763;55.798;37.782;2023-04-28T00:28:00;150779.88;;;13.90;68.78
33422;BME280;19763;55.798;37.782;2023-04-28T00:30:26;150761.88;;;13.83;69.87
33422;BME280;19763;55.798;37.782;2023-04-28T00:32:51;150799.16;;;13.97;69.01
33422;BME280;19763;55.798;37.782;2023-04-28T00:35:18;150788.84;;;13.93;69.49
33422;BME280;19763;55.798;37.782;2023-04-28T00:37:43;150796.56;;;13.96;68.81
33422;BME280;19763;55.798;37.782;2023-04-28T00:40:09;150788.84;;;13.93;69.09
33422;BME280;19763;55.798;37.782;2023-04-28T00:42:35;150785.00;;;13.92;69.63
33422;BME280;19763;55.798;37.782;2023-04-28T00:45:01;150779.88;;;13.90;69.49
33422;BME280;19763;55.798;37.782;2023-04-28T00:47:32;150756.72;;;13.80;70.13
33422;BME280;19763;55.798;37.782;2023-04-28T00:49:59;150714.28;;;13.63;70.22
33422;BME280;19763;55.798;37.782;2023-04-28T00:52:26;150734.88;;;13.72;70.07
33422;BME280;19763;55.798;37.782;2023-04-28T00:54:52;150728.44;;;13.69;70.43
33422;BME280;19763;55.798;37.782;2023-04-28T00:57:18;150727.16;;;13.69;71.26
33422;BME280;19763;55.798;37.782;2023-04-28T00:59:44;150738.72;;;13.73;70.54
33422;BME280;19763;55.798;37.782;2023-04-28T01:02:10;150736.13;;;13.72;70.45
33422;BME280;19763;55.798;37.782;2023-04-28T01:04:42;150716.88;;;13.64;70.10
33422;BME280;19763;55.798;37.782;2023-04-28T01:07:09;150666.75;;;13.44;70.99
33422;BME280;19763;55.798;37.782;2023-04-28T01:09:34;150691.19;;;13.54;71.01
33422;BME280;19763;55.798;37.782;2023-04-28T01:12:00;150693.75;;;13.55;70.51
33422;BME280;19763;55.798;37.782;2023-04-28T01:14:26;150709.16;;;13.61;70.52
33422;BME280;19763;55.798;37.782;2023-04-28T01:16:52;150698.88;;;13.57;70.24
33422;BME280;19763;55.798;37.782;2023-04-28T01:19:21;150700.16;;;13.58;70.84
33422;BME280;19763;55.798;37.782;2023-04-28T01:21:47;150687.31;;;13.53;70.47
33422;BME280;19763;55.798;37.782;2023-04-28T01:24:13;150680.91;;;13.50;70.83
33422;BME280;19763;55.798;37.782;2023-04-28T01:26:39;150677.03;;;13.49;70.95
33422;BME280;19763;55.798;37.782;2023-04-28T01:29:04;150691.19;;;13.54;71.47
33422;BME280;19763;55.798;37.782;2023-04-28T01:31:30;150671.88;;;13.46;70.59
33422;BME280;19763;55.798;37.782;2023-04-28T01:33:56;150671.88;;;13.46;71.50
33422;BME280;19763;55.798;37.782;2023-04-28T01:36:21;150637.16;;;13.33;71.55
33422;BME280;19763;55.798;37.782;2023-04-28T01:38:49;150630.72;;;13.30;71.22
33422;BME280;19763;55.798;37.782;2023-04-28T01:41:14;150576.75;;;13.08;72.00
33422;BME280;19763;55.798;37.782;2023-04-28T01:43:40;150547.19;;;12.97;72.59
33422;BME280;19763;55.798;37.782;2023-04-28T01:46:08;150536.91;;;12.92;73.07
33422;BME280;19763;55.798;37.782;2023-04-28T01:48:34;150533.06;;;12.91;72.70
33422;BME280;19763;55.798;37.782;2023-04-28T01:51:00;150518.91;;;12.85;72.80
33422;BME280;19763;55.798;37.782;2023-04-28T01:53:26;150565.16;;;13.04;72.80
33422;BME280;19763;55.798;37.782;2023-04-28T01:55:52;150606.31;;;13.20;72.30
33422;BME280;19763;55.798;37.782;2023-04-28T01:58:18;150619.19;;;13.25;73.06
33422;BME280;19763;55.798;37.782;2023-04-28T02:00:44;150642.34;;;13.35;72.62
33422;BME280;19763;55.798;37.782;2023-04-28T02:03:10;150639.69;;;13.34;71.06
33422;BME280;19763;55.798;37.782;2023-04-28T02:05:36;150623.03;;;13.27;70.78
33422;BME280;19763;55.798;37.782;2023-04-28T02:08:01;150545.91;;;12.96;72.39
33422;BME280;19763;55.798;37.782;2023-04-28T02:10:27;150551.03;;;12.98;73.20
33422;BME280;19763;55.798;37.782;2023-04-28T02:12:53;150545.91;;;12.96;72.43
33422;BME280;19763;55.798;37.782;2023-04-28T02:15:18;150533.06;;;12.91;73.70
33422;BME280;19763;55.798;37.782;2023-04-28T02:17:44;150530.50;;;12.90;72.82
33422;BME280;19763;55.798;37.782;2023-04-28T02:20:10;150529.19;;;12.89;72.78
33422;BME280;19763;55.798;37.782;2023-04-28T02:22:36;150578.03;;;13.09;72.25
33422;BME280;19763;55.798;37.782;2023-04-28T02:25:01;150578.03;;;13.09;73.21
33422;BME280;19763;55.798;37.782;2023-04-28T02:27:28;150623.03;;;13.27;71.79
33422;BME280;19763;55.798;37.782;2023-04-28T02:29:54;150624.28;;;13.27;72.12
33422;BME280;19763;55.798;37.782;2023-04-28T02:32:20;150621.72;;;13.26;71.73
33422;BME280;19763;55.798;37.782;2023-04-28T02:34:46;150642.34;;;13.35;71.60
33422;BME280;19763;55.798;37.782;2023-04-28T02:37:11;150611.41;;;13.22;72.26
33422;BME280;19763;55.798;37.782;2023-04-28T02:39:37;150614.00;;;13.23;72.58
33422;BME280;19763;55.798;37.782;2023-04-28T02:42:02;150548.50;;;12.97;72.91
33422;BME280;19763;55.798;37.782;2023-04-28T02:44:29;150580.63;;;13.10;73.01
33422;BME280;19763;55.798;37.782;2023-04-28T02:46:55;150554.88;;;13.00;73.03
33422;BME280;19763;55.798;37.782;2023-04-28T02:49:21;150585.72;;;13.12;72.80
33422;BME280;19763;55.798;37.782;2023-04-28T02:51:46;150629.41;;;13.29;72.97
33422;BME280;19763;55.798;37.782;2023-04-28T02:54:12;150610.16;;;13.22;72.45
33422;BME280;19763;55.798;37.782;2023-04-28T02:56:37;150641.00;;;13.34;72.66
33422;BME280;19763;55.798;37.782;2023-04-28T02:59:05;150686.00;;;13.52;71.62
33422;BME280;19763;55.798;37.782;2023-04-28T03:01:31;150710.44;;;13.62;71.48
33422;BME280;19763;55.798;37.782;2023-04-28T03:03:57;150695.03;;;13.56;72.25
33422;BME280;19763;55.798;37.782;2023-04-28T03:06:23;150657.72;;;13.41;72.95
33422;BME280;19763;55.798;37.782;2023-04-28T03:08:48;150629.41;;;13.29;73.00
33422;BME280;19763;55.798;37.782;2023-04-28T03:11:14;150705.31;;;13.60;72.24
33422;BME280;19763;55.798;37.782;2023-04-28T03:13:40;150734.88;;;13.72;71.15
33422;BME280;19763;55.798;37.782;2023-04-28T03:16:06;150719.47;;;13.66;71.11
33422;BME280;19763;55.798;37.782;2023-04-28T03:18:32;150758.03;;;13.81;70.71
33422;BME280;19763;55.798;37.782;2023-04-28T03:20:57;150745.16;;;13.76;71.07
33422;BME280;19763;55.798;37.782;2023-04-28T03:23:23;150737.44;;;13.73;71.55
33422;BME280;19763;55.798;37.782;2023-04-28T03:25:49;150741.31;;;13.74;71.28
33422;BME280;19763;55.798;37.782;2023-04-28T03:28:14;150750.28;;;13.78;71.42
33422;BME280;19763;55.798;37.782;2023-04-28T03:30:40;150729.75;;;13.70;71.24
33422;BME280;19763;55.798;37.782;2023-04-28T03:33:06;150700.16;;;13.58;72.13
33422;BME280;19763;55.798;37.782;2023-04-28T03:35:31;150683.47;;;13.51;71.79
33422;BME280;19763;55.798;37.782;2023-04-28T03:37:57;150674.47;;;13.48;72.96
33422;BME280;19763;55.798;37.782;2023-04-28T03:40:22;150704.00;;;13.59;72.16
33422;BME280;19763;55.798;37.782;2023-04-28T03:42:48;150741.31;;;13.74;71.35
33422;BME280;19763;55.798;37.782;2023-04-28T03:45:14;150763.16;;;13.83;71.79
33422;BME280;19763;55.798;37.782;2023-04-28T03:47:40;150760.56;;;13.82;72.18
33422;BME280;19763;55.798;37.782;2023-04-28T03:50:06;150776.03;;;13.88;71.19
33422;BME280;19763;55.798;37.782;2023-04-28T03:52:31;150781.16;;;13.90;70.96
33422;BME280;19763;55.798;37.782;2023-04-28T03:54:57;150732.28;;;13.71;71.89
33422;BME280;19763;55.798;37.782;2023-04-28T03:57:23;150755.44;;;13.80;71.32
33422;BME280;19763;55.798;37.782;2023-04-28T03:59:48;150785.00;;;13.92;70.63
33422;BME280;19763;55.798;37.782;2023-04-28T04:02:14;150837.72;;;14.13;70.70
33422;BME280;19763;55.798;37.782;2023-04-28T04:04:39;150848.03;;;14.17;70.18
33422;BME280;19763;55.798;37.782;2023-04-28T04:07:05;150853.16;;;14.19;69.98
33422;BME280;19763;55.798;37.782;2023-04-28T04:09:30;150849.28;;;14.18;70.17
33422;BME280;19763;55.798;37.782;2023-04-28T04:11:56;150812.03;;;14.03;70.99
33422;BME280;19763;55.798;37.782;2023-04-28T04:14:23;150867.28;;;14.25;69.84
33422;BME280;19763;55.798;37.782;2023-04-28T04:16:48;150881.44;;;14.30;70.58
33422;BME280;19763;55.798;37.782;2023-04-28T04:19:14;150885.28;;;14.32;69.59
33422;BME280;19763;55.798;37.782;2023-04-28T04:21:39;150940.63;;;14.54;69.20
33422;BME280;19763;55.798;37.782;2023-04-28T04:24:06;150920.03;;;14.46;69.98
33422;BME280;19763;55.798;37.782;2023-04-28T04:26:31;150833.88;;;14.11;70.72
33422;BME280;19763;55.798;37.782;2023-04-28T04:28:57;150872.47;;;14.27;70.48
33422;BME280;19763;55.798;37.782;2023-04-28T04:31:22;150876.31;;;14.28;70.54
33422;BME280;19763;55.798;37.782;2023-04-28T04:33:48;150922.63;;;14.47;69.77
33422;BME280;19763;55.798;37.782;2023-04-28T04:36:14;150930.31;;;14.50;69.43
33422;BME280;19763;55.798;37.782;2023-04-28T04:38:39;150917.44;;;14.45;69.66
33422;BME280;19763;55.798;37.782;2023-04-28T04:41:05;150923.88;;;14.47;69.55
33422;BME280;19763;55.798;37.782;2023-04-28T04:43:31;150944.47;;;14.56;69.68
33422;BME280;19763;55.798;37.782;2023-04-28T04:45:56;150929.06;;;14.49;70.39
33422;BME280;19763;55.798;37.782;2023-04-28T04:48:22;150957.34;;;14.61;70.06
33422;BME280;19763;55.798;37.782;2023-04-28T04:50:48;150957.34;;;14.61;69.72
33422;BME280;19763;55.798;37.782;2023-04-28T04:53:14;150953.50;;;14.59;70.42
33422;BME280;19763;55.798;37.782;2023-04-28T04:55:39;150953.50;;;14.59;70.64
33422;BME280;19763;55.798;37.782;2023-04-28T04:58:05;150970.25;;;14.66;70.30
33422;BME280;19763;55.798;37.782;2023-04-28T05:00:31;150957.34;;;14.61;70.58
33422;BME280;19763;55.798;37.782;2023-04-28T05:02:56;150999.84;;;14.78;70.48
33422;BME280;19763;55.798;37.782;2023-04-28T05:05:22;150992.09;;;14.75;70.98
33422;BME280;19763;55.798;37.782;2023-04-28T05:07:47;151020.41;;;14.86;70.33
33422;BME280;19763;55.798;37.782;2023-04-28T05:10:13;151064.19;;;15.04;69.96
33422;BME280;19763;55.798;37.782;2023-04-28T05:12:39;151059.00;;;15.01;70.03
33422;BME280;19763;55.798;37.782;2023-04-28T05:15:05;151003.72;;;14.79;69.46
33422;BME280;19763;55.798;37.782;2023-04-28T05:17:32;151011.44;;;14.82;69.58
33422;BME280;19763;55.798;37.782;2023-04-28T05:19:58;151006.25;;;14.80;69.77
33422;BME280;19763;55.798;37.782;2023-04-28T05:22:23;151039.72;;;14.94;69.49
33422;BME280;19763;55.798;37.782;2023-04-28T05:24:50;151013.97;;;14.83;70.07
33422;BME280;19763;55.798;37.782;2023-04-28T05:27:16;151038.41;;;14.93;69.84
33422;BME280;19763;55.798;37.782;2023-04-28T05:29:42;151066.72;;;15.05;70.47
33422;BME280;19763;55.798;37.782;2023-04-28T05:32:07;151056.44;;;15.00;70.01
33422;BME280;19763;55.798;37.782;2023-04-28T05:34:33;151079.63;;;15.10;70.10
33422;BME280;19763;55.798;37.782;2023-04-28T05:36:59;151073.16;;;15.07;69.26
33422;BME280;19763;55.798;37.782;2023-04-28T05:39:25;151075.75;;;15.08;69.05
33422;BME280;19763;55.798;37.782;2023-04-28T05:41:51;151089.91;;;15.14;69.98
33422;BME280;19763;55.798;37.782;2023-04-28T05:44:16;151098.91;;;15.17;69.89
33422;BME280;19763;55.798;37.782;2023-04-28T05:46:42;151093.75;;;15.15;70.08
33422;BME280;19763;55.798;37.782;2023-04-28T05:49:09;151064.19;;;15.04;69.94
33422;BME280;19763;55.798;37.782;2023-04-28T05:51:35;151113.06;;;15.23;69.35
33422;BME280;19763;55.798;37.782;2023-04-28T05:54:00;151150.41;;;15.38;70.02
33422;BME280;19763;55.798;37.782;2023-04-28T05:56:26;151203.19;;;15.59;69.53
33422;BME280;19763;55.798;37.782;2023-04-28T05:58:52;151185.16;;;15.52;69.04
33422;BME280;19763;55.798;37.782;2023-04-28T06:01:18;151200.59;;;15.58;69.31
33422;BME280;19763;55.798;37.782;2023-04-28T06:03:43;151210.91;;;15.62;68.81
33422;BME280;19763;55.798;37.782;2023-04-28T06:06:10;151246.94;;;15.77;68.59
33422;BME280;19763;55.798;37.782;2023-04-28T06:08:36;151259.88;;;15.82;69.21
33422;BME280;19763;55.798;37.782;2023-04-28T06:11:02;151311.34;;;16.02;67.90
33422;BME280;19763;55.798;37.782;2023-04-28T06:13:28;151380.88;;;16.30;67.11
33422;BME280;19763;55.798;37.782;2023-04-28T06:15:53;151413.06;;;16.43;67.36
33422;BME280;19763;55.798;37.782;2023-04-28T06:18:19;151486.50;;;16.72;65.93
33422;BME280;19763;55.798;37.782;2023-04-28T06:20:45;151514.84;;;16.84;66.48
33422;BME280;19763;55.798;37.782;2023-04-28T06:23:11;151507.13;;;16.81;65.67
33422;BME280;19763;55.798;37.782;2023-04-28T06:25:36;151476.19;;;16.68;66.15
33422;BME280;19763;55.798;37.782;2023-04-28T06:28:02;151431.16;;;16.50;67.41
33422;BME280;19763;55.798;37.782;2023-04-28T06:30:28;151453.03;;;16.59;66.48
33422;BME280;19763;55.798;37.782;2023-04-28T06:32:54;151453.03;;;16.59;66.10
33422;BME280;19763;55.798;37.782;2023-04-28T06:35:22;151463.34;;;16.63;65.82
33422;BME280;19763;55.798;37.782;2023-04-28T06:37:47;151495.56;;;16.76;66.36
33422;BME280;19763;55.798;37.782;2023-04-28T06:40:13;151489.09;;;16.73;66.71
33422;BME280;19763;55.798;37.782;2023-04-28T06:42:39;151529.09;;;16.89;66.12
33422;BME280;19763;55.798;37.782;2023-04-28T06:45:05;151489.09;;;16.73;66.15
33422;BME280;19763;55.798;37.782;2023-04-28T06:47:31;151442.72;;;16.55;66.46
33422;BME280;19763;55.798;37.782;2023-04-28T06:49:56;151414.38;;;16.44;66.95
33422;BME280;19763;55.798;37.782;2023-04-28T06:52:22;151458.16;;;16.61;66.67
33422;BME280;19763;55.798;37.782;2023-04-28T06:54:49;151450.44;;;16.58;66.40
33422;BME280;19763;55.798;37.782;2023-04-28T06:57:15;151486.50;;;16.72;66.07
33422;BME280;19763;55.798;37.782;2023-04-28T06:59:40;151494.22;;;16.76;66.74
33422;BME280;19763;55.798;37.782;2023-04-28T07:02:08;151413.06;;;16.43;67.31
33422;BME280;19763;55.798;37.782;2023-04-28T07:04:35;151440.13;;;16.54;67.24
33422;BME280;19763;55.798;37.782;2023-04-28T07:07:01;151411.78;;;16.43;67.77
33422;BME280;19763;55.798;37.782;2023-04-28T07:09:26;151362.84;;;16.23;69.71
33422;BME280;19763;55.798;37.782;2023-04-28T07:11:52;151293.34;;;15.95;71.12
33422;BME280;19763;55.798;37.782;2023-04-28T07:14:18;151200.59;;;15.58;74.16
33422;BME280;19763;55.798;37.782;2023-04-28T07:16:43;151243.06;;;15.75;74.56
33422;BME280;19763;55.798;37.782;2023-04-28T07:19:09;151263.72;;;15.83;74.77
33422;BME280;19763;55.798;37.782;2023-04-28T07:21:35;151246.94;;;15.77;75.47
33422;BME280;19763;55.798;37.782;2023-04-28T07:24:01;151270.13;;;15.86;75.89
33422;BME280;19763;55.798;37.782;2023-04-28T07:26:26;151283.03;;;15.91;77.04
33422;BME280;19763;55.798;37.782;2023-04-28T07:28:52;151298.47;;;15.97;76.30
33422;BME280;19763;55.798;37.782;2023-04-28T07:31:18;151316.50;;;16.04;75.63
33422;BME280;19763;55.798;37.782;2023-04-28T07:33:43;151286.88;;;15.93;74.83
33422;BME280;19763;55.798;37.782;2023-04-28T07:36:09;151308.78;;;16.01;74.23
33422;BME280;19763;55.798;37.782;2023-04-28T07:38:35;151326.78;;;16.09;74.20
33422;BME280;19763;55.798;37.782;2023-04-28T07:41:02;151270.13;;;15.86;75.00
33422;BME280;19763;55.798;37.782;2023-04-28T07:43:28;151286.88;;;15.93;74.98
33422;BME280;19763;55.798;37.782;2023-04-28T07:45:54;151265.00;;;15.84;75.41
33422;BME280;19763;55.798;37.782;2023-04-28T07:48:20;151232.78;;;15.71;76.92
33422;BME280;19763;55.798;37.782;2023-04-28T07:50:45;151254.69;;;15.80;76.69
33422;BME280;19763;55.798;37.782;2023-04-28T07:53:11;151288.16;;;15.93;76.17
33422;BME280;19763;55.798;37.782;2023-04-28T07:55:36;151223.75;;;15.67;76.12
33422;BME280;19763;55.798;37.782;2023-04-28T07:58:02;151261.16;;;15.82;76.26
33422;BME280;19763;55.798;37.782;2023-04-28T08:00:28;151239.22;;;15.74;75.70
33422;BME280;19763;55.798;37.782;2023-04-28T08:02:54;151302.31;;;15.99;75.58
33422;BME280;19763;55.798;37.782;2023-04-28T08:05:21;151279.16;;;15.90;75.75
33422;BME280;19763;55.798;37.782;2023-04-28T08:07:46;151258.56;;;15.81;75.73
33422;BME280;19763;55.798;37.782;2023-04-28T08:10:12;151335.84;;;16.12;75.25
33422;BME280;19763;55.798;37.782;2023-04-28T08:12:37;151355.13;;;16.20;73.88
33422;BME280;19763;55.798;37.782;2023-04-28T08:15:05;151393.78;;;16.35;73.84
33422;BME280;19763;55.798;37.782;2023-04-28T08:17:31;151404.09;;;16.39;73.70
33422;BME280;19763;55.798;37.782;2023-04-28T08:19:57;151284.31;;;15.92;74.16
33422;BME280;19763;55.798;37.782;2023-04-28T08:22:22;151373.16;;;16.27;73.97
33422;BME280;19763;55.798;37.782;2023-04-28T08:24:48;151406.66;;;16.41;73.95
33422;BME280;19763;55.798;37.782;2023-04-28T08:27:15;151392.50;;;16.35;73.61
33422;BME280;19763;55.798;37.782;2023-04-28T08:29:40;151286.88;;;15.93;75.40
33422;BME280;19763;55.798;37.782;2023-04-28T08:32:06;151250.78;;;15.78;76.66
33422;BME280;19763;55.798;37.782;2023-04-28T08:34:32;151319.06;;;16.05;75.51
33422;BME280;19763;55.798;37.782;2023-04-28T08:36:58;151277.91;;;15.89;75.34
33422;BME280;19763;55.798;37.782;2023-04-28T08:39:24;151299.78;;;15.98;75.17
33422;BME280;19763;55.798;37.782;2023-04-28T08:41:51;151254.69;;;15.80;75.74
33422;BME280;19763;55.798;37.782;2023-04-28T08:44:17;151268.88;;;15.85;75.28
33422;BME280;19763;55.798;37.782;2023-04-28T08:46:44;151240.50;;;15.74;75.28
33422;BME280;19763;55.798;37.782;2023-04-28T08:49:17;151272.72;;;15.87;75.13
33422;BME280;19763;55.798;37.782;2023-04-28T08:51:55;151288.16;;;15.93;75.59
33422;BME280;19763;55.798;37.782;2023-04-28T08:54:28;151297.19;;;15.97;74.64
33422;BME280;19763;55.798;37.782;2023-04-28T08:56:55;151326.78;;;16.09;73.87
33422;BME280;19763;55.798;37.782;2023-04-28T08:59:21;151346.13;;;16.16;73.34
33422;BME280;19763;55.798;37.782;2023-04-28T09:01:50;151355.13;;;16.20;74.00
33422;BME280;19763;55.798;37.782;2023-04-28T09:04:16;151361.56;;;16.22;73.33
33422;BME280;19763;55.798;37.782;2023-04-28T09:06:42;151346.13;;;16.16;73.85
33422;BME280;19763;55.798;37.782;2023-04-28T09:09:25;151310.09;;;16.02;75.28
33422;BME280;19763;55.798;37.782;2023-04-28T09:12:01;151316.50;;;16.04;75.49
33422;BME280;19763;55.798;37.782;2023-04-28T09:14:29;151302.31;;;15.99;76.17
33422;BME280;19763;55.798;37.782;2023-04-28T09:16:55;151293.34;;;15.95;76.79
33422;BME280;19763;55.798;37.782;2023-04-28T09:19:21;151329.38;;;16.10;77.03
33422;BME280;19763;55.798;37.782;2023-04-28T09:24:28;151353.84;;;16.19;78.08
33422;BME280;19763;55.798;37.782;2023-04-28T09:26:54;151340.97;;;16.14;78.55
33422;BME280;19763;55.798;37.782;2023-04-28T09:29:20;151377.00;;;16.29;79.17
33422;BME280;19763;55.798;37.782;2023-04-28T09:31:46;151344.81;;;16.16;78.25
33422;BME280;19763;55.798;37.782;2023-04-28T09:34:12;151361.56;;;16.22;78.49
33422;BME280;19763;55.798;37.782;2023-04-28T09:36:37;151335.84;;;16.12;78.53
33422;BME280;19763;55.798;37.782;2023-04-28T09:39:03;151308.78;;;16.01;79.80
33422;BME280;19763;55.798;37.782;2023-04-28T09:41:40;151313.94;;;16.03;79.78
33422;BME280;19763;55.798;37.782;2023-04-28T09:44:16;151286.88;;;15.93;80.75
33422;BME280;19763;55.798;37.782;2023-04-28T09:46:44;151317.81;;;16.05;80.07
33422;BME280;19763;55.798;37.782;2023-04-28T09:49:10;151319.06;;;16.05;80.13
33422;BME280;19763;55.798;37.782;2023-04-28T09:51:36;151311.34;;;16.02;79.63
33422;BME280;19763;55.798;37.782;2023-04-28T09:54:02;151329.38;;;16.10;79.76
33422;BME280;19763;55.798;37.782;2023-04-28T09:56:29;151330.66;;;16.10;79.40
33422;BME280;19763;55.798;37.782;2023-04-28T09:58:59;151308.78;;;16.01;79.01
33422;BME280;19763;55.798;37.782;2023-04-28T10:01:26;151307.50;;;16.01;80.10
33422;BME280;19763;55.798;37.782;2023-04-28T10:03:55;151317.81;;;16.05;79.74
33422;BME280;19763;55.798;37.782;2023-04-28T10:06:22;151347.41;;;16.17;79.54
33422;BME280;19763;55.798;37.782;2023-04-28T10:08:50;151334.50;;;16.12;79.23
33422;BME280;19763;55.798;37.782;2023-04-28T10:11:16;151308.78;;;16.01;79.13
33422;BME280;19763;55.798;37.782;2023-04-28T10:13:42;151335.84;;;16.12;79.25
33422;BME280;19763;55.798;37.782;2023-04-28T10:16:12;151330.66;;;16.10;79.14
33422;BME280;19763;55.798;37.782;2023-04-28T10:18:39;151361.56;;;16.22;79.04
33422;BME280;19763;55.798;37.782;2023-04-28T10:21:05;151368.03;;;16.25;78.98
33422;BME280;19763;55.798;37.782;2023-04-28T10:26:02;151310.09;;;16.02;79.30
33422;BME280;19763;55.798;37.782;2023-04-28T10:28:28;151368.03;;;16.25;78.23
33422;BME280;19763;55.798;37.782;2023-04-28T10:31:09;151368.03;;;16.25;78.58
33422;BME280;19763;55.798;37.782;2023-04-28T10:33:39;151378.34;;;16.29;78.24
33422;BME280;19763;55.798;37.782;2023-04-28T10:36:06;151419.53;;;16.46;78.48
33422;BME280;19763;55.798;37.782;2023-04-28T10:38:32;151410.53;;;16.42;77.75
33422;BME280;19763;55.798;37.782;2023-04-28T10:40:58;151424.69;;;16.48;77.70
33422;BME280;19763;55.798;37.782;2023-04-28T10:56:16;151446.59;;;16.56;75.24
33422;BME280;19763;55.798;37.782;2023-04-28T10:58:55;151491.69;;;16.74;74.69
33422;BME280;19763;55.798;37.782;2023-04-28T11:06:46;151599.97;;;17.18;74.77
33422;BME280;19763;55.798;37.782;2023-04-28T11:17:03;151584.50;;;17.12;72.78
33422;BME280;19763;55.798;37.782;2023-04-28T11:19:43;151513.59;;;16.83;73.85
33422;BME280;19763;55.798;37.782;2023-04-28T11:22:20;151419.53;;;16.46;74.45
33422;BME280;19763;55.798;37.782;2023-04-28T11:25:01;151424.69;;;16.48;74.44
33422;BME280;19763;55.798;37.782;2023-04-28T11:27:30;151453.03;;;16.59;74.91
33422;BME280;19763;55.798;37.782;2023-04-28T11:29:56;151496.81;;;16.77;74.70
33422;BME280;19763;55.798;37.782;2023-04-28T11:32:30;151440.13;;;16.54;75.26
33422;BME280;19763;55.798;37.782;2023-04-28T11:34:57;151444.00;;;16.55;75.89
33422;BME280;19763;55.798;37.782;2023-04-28T11:37:22;151459.50;;;16.62;77.01
33422;BME280;19763;55.798;37.782;2023-04-28T11:39:48;151392.50;;;16.35;78.69
33422;BME280;19763;55.798;37.782;2023-04-28T11:42:14;151371.88;;;16.27;81.38
33422;BME280;19763;55.798;37.782;2023-04-28T11:44:48;151334.50;;;16.12;81.48
33422;BME280;19763;55.798;37.782;2023-04-28T11:47:14;151306.22;;;16.00;81.12
33422;BME280;19763;55.798;37.782;2023-04-28T11:49:43;151236.63;;;15.73;83.02
33422;BME280;19763;55.798;37.782;2023-04-28T11:52:09;151236.63;;;15.73;84.08
33422;BME280;19763;55.798;37.782;2023-04-28T11:54:36;151216.03;;;15.64;84.60
33422;BME280;19763;55.798;37.782;2023-04-28T11:57:03;151208.31;;;15.61;84.78
33422;BME280;19763;55.798;37.782;2023-04-28T11:59:35;151205.72;;;15.60;84.42
33422;BME280;19763;55.798;37.782;2023-04-28T12:04:46;151178.72;;;15.49;86.27
33422;BME280;19763;55.798;37.782;2023-04-28T12:07:16;151173.53;;;15.47;85.51
33422;BME280;19763;55.798;37.782;2023-04-28T12:09:46;151198.00;;;15.57;85.90
33422;BME280;19763;55.798;37.782;2023-04-28T12:12:15;151191.56;;;15.54;86.42
33422;BME280;19763;55.798;37.782;2023-04-28T12:14:59;151214.75;;;15.64;85.91
33422;BME280;19763;55.798;37.782;2023-04-28T12:17:41;151217.34;;;15.65;86.52
33422;BME280;19763;55.798;37.782;2023-04-28T12:20:08;151255.97;;;15.80;86.41
33422;BME280;19763;55.798;37.782;2023-04-28T12:23:01;151263.72;;;15.83;85.95
33422;BME280;19763;55.798;37.782;2023-04-28T12:25:27;151275.31;;;15.88;85.73
33422;BME280;19763;55.798;37.782;2023-04-28T12:28:06;151241.75;;;15.75;87.06
33422;BME280;19763;55.798;37.782;2023-04-28T12:30:33;151253.44;;;15.79;86.23
33422;BME280;19763;55.798;37.782;2023-04-28T12:33:00;151262.41;;;15.83;86.05
33422;BME280;19763;55.798;37.782;2023-04-28T12:35:27;151237.91;;;15.73;84.54
33422;BME280;19763;55.798;37.782;2023-04-28T12:37:53;151252.13;;;15.79;84.04
33422;BME280;19763;55.798;37.782;2023-04-28T12:40:20;151262.41;;;15.83;85.28
33422;BME280;19763;55.798;37.782;2023-04-28T12:42:46;151293.34;;;15.95;85.92
33422;BME280;19763;55.798;37.782;2023-04-28T12:45:12;151308.78;;;16.01;86.84
33422;BME280;19763;55.798;37.782;2023-04-28T12:47:38;151326.78;;;16.09;87.42
33422;BME280;19763;55.798;37.782;2023-04-28T12:50:05;151370.63;;;16.26;86.34
33422;BME280;19763;55.798;37.782;2023-04-28T12:52:31;151393.78;;;16.35;85.56
33422;BME280;19763;55.798;37.782;2023-04-28T12:55:03;151397.63;;;16.37;85.56
33422;BME280;19763;55.798;37.782;2023-04-28T12:57:29;151416.97;;;16.45;85.94
33422;BME280;19763;55.798;37.782;2023-04-28T12:59:54;151409.22;;;16.42;85.44
33422;BME280;19763;55.798;37.782;2023-04-28T13:02:21;151382.19;;;16.31;85.07
33422;BME280;19763;55.798;37.782;2023-04-28T13:04:47;151368.03;;;16.25;85.31
33422;BME280;19763;55.798;37.782;2023-04-28T13:07:13;151371.88;;;16.27;85.99
33422;BME280;19763;55.798;37.782;2023-04-28T13:09:40;151342.28;;;16.15;85.25
33422;BME280;19763;55.798;37.782;2023-04-28T13:12:07;151308.78;;;16.01;83.82